• Join FlightAware (Why Join?)
  • Login
  • US Flag GB Flag 
08:23 EDT


 

Airport Tracker/Info


-or-


 

Live Flight TrackerFlight Track Log ✈ TRS587 ✈ 07-Sep-2013 ✈ KMCO - KMDW

Flight Track Log - Related Links

Times and Time Zones

All times are in EDT time to prevent confusion due to time zone crossing. See the TRS587 flight status page for this flight to view local times or setup timezone preferences in your user account.

Time Position Orientation Groundspeed Altitude Reporting Facility
EDT Latitude Longitude Course Direction KTS MPH feet Rate Location/Type
11:42 28.4333 -81.3000 334° Northwest 171 197 900  Level Orlando TRACON
11:43 28.5000 -81.3167 348° North 197 227 2,900 1,440 Climbing Orlando TRACON
11:44 28.5500 -81.3333 344° North 254 292 3,800 1,380 Climbing Orlando TRACON
11:45 28.5500 -81.4167 270° West 279 321 5,600 1,980 Climbing Orlando TRACON
11:47 28.4978 -81.5581 247° West 286 329 9,300 1,860 Climbing Jacksonville Center
11:48 29.0571 -81.5667 334° Northwest  Level Estimated
11:48 28.4842 -81.6525 261° West 293 337 10,800  Level Jacksonville Center
11:49 28.4747 -81.7589 264° West 319 367 11,800 1,080 Climbing Jacksonville Center
11:50 28.4672 -81.8747 266° West 353 406 13,000 1,500 Climbing Jacksonville Center
11:51 28.4972 -81.9925 286° West 379 436 14,900 1,680 Climbing Jacksonville Center
11:52 28.5356 -82.1058 291° West 384 442 16,400 1,560 Climbing Jacksonville Center
11:53 28.5719 -82.2261 289° West 390 449 18,100 1,560 Climbing Jacksonville Center
11:54 28.6119 -82.3464 291° West 401 461 19,600 1,440 Climbing Jacksonville Center
11:55 28.6542 -82.4692 291° West 406 467 21,000 1,320 Climbing Jacksonville Center
11:56 28.6964 -82.5944 291° West 418 481 22,300 1,260 Climbing Jacksonville Center
11:57 28.7633 -82.7031 305° West 418 481 23,500 1,200 Climbing Jacksonville Center
11:58 28.8783 -82.7550 338° Northwest 408 470 24,700 1,020 Climbing Jacksonville Center
11:59 28.9950 -82.8047 340° North 418 481 25,600 900 Climbing Jacksonville Center
12:00 29.1161 -82.8569 339° North 442 509 26,500 960 Climbing Jacksonville Center
12:01 29.2394 -82.9117 339° North 459 528 27,600 1,200 Climbing Jacksonville Center
12:02 29.3564 -82.9642 339° North 459 528 28,900 1,200 Climbing Jacksonville Center
12:03 29.4731 -83.0167 339° North 453 521 30,100 1,380 Climbing Jacksonville Center
12:04 29.5919 -83.0717 338° Northwest 459 528 31,700 900 Climbing Jacksonville Center
12:05 29.7067 -83.1222 339° North 453 521 32,000 120 Climbing Jacksonville Center
12:06 29.8236 -83.1750 339° North 453 521 32,000  Level Jacksonville Center
12:07 29.9403 -83.2281 338° Northwest 448 516 32,000  Level Jacksonville Center
12:08 30.0342 -83.2692 339° North 448 516 32,000  Level Jacksonville Center
12:09 30.1594 -83.3250 339° North 448 516 32,000  Level Jacksonville Center
12:10 30.2739 -83.3783 338° Northwest 448 516 32,000  Level Jacksonville Center
12:11 30.3906 -83.4319 338° Northwest 448 516 32,000  Level Jacksonville Center
12:12 30.5031 -83.4856 338° Northwest 448 516 32,000  Level Jacksonville Center
12:13 30.6178 -83.5372 339° North 448 516 32,000  Level Jacksonville Center
12:14 30.7406 -83.5936 338° Northwest 436 502 32,000  Level Jacksonville Center
12:15 30.8553 -83.6475 338° Northwest 436 502 32,000  Level Jacksonville Center
12:16 30.9697 -83.7019 338° Northwest 436 502 32,000  Level Jacksonville Center
12:17 31.0842 -83.7536 339° North 436 502 32,000  Level Jacksonville Center
12:18 31.2008 -83.8083 338° Northwest 436 502 32,000  Level Jacksonville Center
12:19 31.3028 -83.8556 338° Northwest 436 502 32,000  Level Jacksonville Center
12:21 31.5797 -83.9756 340° North 442 509 32,000  Level Atlanta Center
12:22 31.6922 -84.0022 349° North 442 509 32,000  Level Atlanta Center
12:23 31.8175 -84.0292 350° North 452 520 32,000  Level Atlanta Center
12:24 31.9408 -84.0536 350° North 452 520 32,000  Level Atlanta Center
12:25 32.0658 -84.0806 350° North 452 520 32,000  Level Atlanta Center
12:26 32.1869 -84.1075 349° North 446 513 32,000  Level Atlanta Center
12:27 32.3122 -84.1372 349° North 446 513 32,000  Level Atlanta Center
12:28 32.4353 -84.1644 349° North 446 513 32,000  Level Atlanta Center
12:29 32.5583 -84.1942 348° North 446 513 32,000  Level Atlanta Center
12:30 32.6794 -84.2189 350° North 446 513 32,000  Level Atlanta Center
12:31 32.8006 -84.2514 347° North 446 513 32,000  Level Atlanta Center
12:32 32.9236 -84.2764 350° North 447 514 32,000  Level Atlanta Center
12:33 33.0447 -84.3039 349° North 447 514 32,000  Level Atlanta Center
12:34 33.1656 -84.3317 349° North 442 509 32,000  Level Atlanta Center
12:35 33.2886 -84.3594 349° North 442 509 32,000  Level Atlanta Center
12:36 33.3045 -84.3629 349° North  Level FlightAware Approximate
12:36 33.4097 -84.3872 349° North 448 516 32,000  Level Atlanta Center
12:37 33.5431 -84.4178 349° North 448 516 32,000  Level Atlanta Center
12:38 33.6642 -84.4456 349° North 448 516 32,000  Level Atlanta Center
12:39 33.7831 -84.4761 348° North 447 514 32,000  Level Atlanta Center
12:40 33.9039 -84.5044 349° North 447 514 32,000  Level Atlanta Center
12:41 34.0144 -84.5300 349° North 445 512 32,000  Level Atlanta Center
12:42 34.1417 -84.5608 349° North 451 519 32,000  Level Atlanta Center
12:43 34.2606 -84.5892 349° North 443 510 32,000  Level Atlanta Center
12:44 34.3814 -84.6178 349° North 438 504 32,000  Level Atlanta Center
12:45 34.5108 -84.6489 349° North 433 498 32,000  Level Atlanta Center
12:46 34.6294 -84.6800 348° North 433 498 32,000  Level Atlanta Center
12:47 34.7336 -84.7086 347° North 427 491 32,000  Level Atlanta Center
12:48 34.8506 -84.7347 350° North 427 491 32,000  Level Atlanta Center
12:49 34.9692 -84.7661 348° North 427 491 32,000  Level Atlanta Center
12:50 35.0900 -84.7953 349° North 432 497 32,000  Level Atlanta Center
12:51 35.2089 -84.8242 349° North 432 497 32,000  Level Atlanta Center
12:52 35.3275 -84.8558 348° North 432 497 32,000 420 Level Atlanta Center
12:53 35.4483 -84.8853 349° North 432 497 32,900 540 Climbing Atlanta Center
12:56 35.7269 -84.9561 348° North 435 501 34,000 300 Climbing Indianapolis Center
12:57 35.8469 -84.9869 348° North 434 499 34,000  Level Indianapolis Center
12:58 35.9836 -85.0208 349° North 442 509 34,000  Level Indianapolis Center
12:59 36.1042 -85.0511 349° North 441 507 34,000  Level Indianapolis Center
13:00 36.2233 -85.0822 348° North 437 503 34,000  Level Indianapolis Center
13:01 36.3428 -85.1125 348° North 437 503 34,000  Level Indianapolis Center
13:02 36.4614 -85.1436 348° North 436 502 34,000  Level Indianapolis Center
13:03 36.5806 -85.1736 349° North 436 502 34,000  Level Indianapolis Center
13:04 36.7006 -85.2039 349° North 439 505 34,000  Level Indianapolis Center
13:05 36.8444 -85.2419 348° North 440 506 34,000  Level Indianapolis Center
13:06 36.9647 -85.2742 348° North 441 507 34,000  Level Indianapolis Center
13:07 37.0925 -85.3069 348° North 443 510 34,000 -300 Level Indianapolis Center
13:08 37.2119 -85.3392 348° North 440 506 33,400 -540 Descending Indianapolis Center
13:09 37.3328 -85.3708 348° North 441 507 33,000 -240 Descending Indianapolis Center
13:10 37.4542 -85.4019 349° North 442 509 33,000  Level Indianapolis Center
13:11 37.5750 -85.4347 348° North 441 507 33,000  Level Indianapolis Center
13:12 37.6944 -85.4689 347° North 440 506 33,000  Level Indianapolis Center
13:13 37.8156 -85.4997 349° North 441 507 33,000  Level Indianapolis Center
13:14 37.9486 -85.5350 348° North 447 514 33,000  Level Indianapolis Center
13:15 38.0678 -85.5664 348° North 439 505 33,000  Level Indianapolis Center
13:16 38.1886 -85.5931 350° North 439 505 33,000  Level Indianapolis Center
13:17 38.3083 -85.6169 351° North 437 503 33,000  Level Indianapolis Center
13:18 38.4303 -85.6400 352° North 439 505 33,000  Level Indianapolis Center
13:19 38.5514 -85.6639 351° North 440 506 33,000 -480 Level Indianapolis Center
13:20 38.6953 -85.6919 351° North 440 506 32,100 -960 Descending Indianapolis Center
13:21 38.8144 -85.7153 351° North 435 501 31,100 -1,020 Descending Indianapolis Center
13:22 38.9361 -85.7386 352° North 443 510 30,100 -1,020 Descending Indianapolis Center
13:23 39.0608 -85.7636 351° North 453 521 29,100 -1,020 Descending Indianapolis Center
13:24 39.1825 -85.7875 351° North 446 513 28,100 -540 Descending Indianapolis Center
13:25 39.3050 -85.8114 351° North 446 513 28,000 -240 Descending Indianapolis Center
13:26 39.4244 -85.8350 351° North 440 506 27,700 -600 Descending Indianapolis Center
13:27 39.5661 -85.8636 351° North 433 498 26,800 -900 Descending Indianapolis Center
13:28 39.6828 -85.8864 351° North 430 495 25,900 -840 Descending Indianapolis Center
13:29 39.7956 -85.9089 351° North 419 482 25,100 -840 Descending Indianapolis Center
13:31 39.9083 -85.9317 351° North 416 479 24,300 -540 Descending Indianapolis Center
13:32 40.0203 -85.9536 351° North 412 474 24,000 -180 Descending Indianapolis Center
13:33 40.1336 -85.9767 351° North 414 476 24,000 -360 Level Indianapolis Center
13:33 40.2214 -85.9997 349° North 409 471 23,400 -1,020 Descending Chicago Center
13:34 40.3244 -86.0550 338° Northwest 401 461 22,300 -1,080 Descending Chicago Center
13:35 40.4269 -86.1061 339° North 395 455 21,200 -1,080 Descending Chicago Center
13:36 40.5250 -86.1581 338° Northwest 383 441 20,100 -1,080 Descending Chicago Center
13:37 40.6242 -86.2089 339° North 384 442 19,000 -1,380 Descending Chicago Center
13:38 40.7353 -86.2672 338° Northwest 365 420 17,300 -1,620 Descending Chicago Center
13:39 40.8289 -86.3161 338° Northwest 359 413 15,700 -1,620 Descending Chicago Center
13:40 40.9200 -86.3658 338° Northwest 357 411 14,000 -1,920 Descending Chicago Center
13:41 41.0111 -86.4119 339° North 351 404 11,800 -1,500 Descending Chicago Center
13:42 41.0817 -86.4864 322° Northwest 336 387 11,000 -720 Descending Chicago Center
13:44 41.1428 -86.5758 312° West 329 379 10,400 -480 Descending Chicago Center
13:45 41.2142 -86.6861 311° West 327 376 10,100 -180 Descending Chicago Center
13:46 41.2731 -86.7811 310° West 326 375 10,100 -60 Level Chicago Center
13:47 41.3306 -86.8692 311° West 320 368 10,000 -840 Descending Chicago Center
13:48 41.3800 -86.9447 311° West 281 323 8,400 -1,560 Descending Chicago Center
13:49 41.4281 -87.0200 310° West 271 312 6,800 -1,200 Descending Chicago Center
13:50 41.4667 -87.1022 302° West 266 306 6,000 -480 Descending Chicago Center
13:51 41.5008 -87.1886 298° West 267 307 5,900 -300 Descending Chicago Center
13:52 41.5453 -87.2958 299° West 273 314 5,400 -540 Descending Chicago Center
13:53 41.5817 -87.3819 299° West 269 310 4,900 -540 Descending Chicago Center
13:54 41.6136 -87.4675 297° West 263 303 4,300 -480 Descending Chicago Center
13:55 41.6381 -87.5408 294° West 241 277 4,000 -300 Descending Chicago Center
13:56 41.6711 -87.5936 310° West 209 241 3,700 -720 Descending Chicago Center
13:57 41.7053 -87.6397 315° West 189 217 2,600 -1,020 Descending Chicago Center
13:58 41.7494 -87.6831 324° Northwest 176 203 1,700 -480 Descending Chicago Center
13:59 41.7906 -87.6733 10° North 163 188 1,700 -240 Level Chicago Center
14:00 41.8114 -87.7133 305° West 147 169 1,300 -300 Descending Chicago Center
14:01 41.7986 -87.7589 249° West 144 166 1,100 -240 Descending Chicago Center